Dobrodošli na spletni strani vremenske postaje Senovo. Vse informacije so informativnega značaja, saj vremenska postaja ni del državne mreže meteoroloških postaj. OBVESTILO: Letni količini padavin navedeni na spletni strani je potrebno prišteti 98,1 mm, zaradi izgube podatkov.


Posebna pozornost v zvezi z vremenskimi dogajanji ni potrebna.    Posebna pozornost v zvezi z vremenskimi dogajanji ni potrebna.

Pogled proti Armezu več informacij Pogled proti Armezu


Lisca več informacij Lisca


Radar strel več informacij blitzortung!


Radar padavin več informacij rain snow radar


Obiščite še:

Template documentation
and downloads

And another site



Weather Underground, zgodovina - Tekstovno

Dnevni povzetek za Avgust 9, 2017 Enote:  Angleško    Metrično   Obe
« Predhodni Dan
Naslednji Dan »
Dnevni Tedenski Mesečni Letni Po meri
  Višja: Nižja: Povprečje:
Temperatura: 92.1 °F 62.2 °F 76.6 °F
Točka rosišča: 72.5 °F 61.2 °F 67.5 °F
Vlažnost: 96 % 46 % 76 %
Hitrost vetra: 4.7 mph 0 mph 1.3 mph
Sunki vetra: 9.8 mph - -
Veter:- - SE
Zračni tlak: 30.1 in 29.9 in -
Padavine: 0 in    
Historical Graphs
 
 
Tabelarni podarki za Avgust 9, 2017
Čas Temperatura Točka rosišča Zračni tlak Veter Hitrost vetra Sunki vetra Vlažnost Intenziteta padavin (urna)
00:04 66.9 °F 64.2 °F 30 in NW 0.1 mph 2.2 mph 91 % 0 in
00:09 66.9 °F 64.2 °F 30 in Calm     91 % 0 in
00:14 66.7 °F 64 °F 30 in Calm     91 % 0 in
00:19 66.7 °F 64 °F 30 in Calm     91 % 0 in
00:24 66.7 °F 64.2 °F 30 in Calm     92 % 0 in
00:29 66.6 °F 64.2 °F 30 in Calm   0.9 mph 92 % 0 in
00:34 66.6 °F 64.2 °F 30 in Calm   0.9 mph 92 % 0 in
00:39 66.4 °F 64 °F 30 in Calm     92 % 0 in
00:44 66.4 °F 64 °F 30 in Calm     92 % 0 in
00:49 66.4 °F 64 °F 30 in Calm     92 % 0 in
00:54 66.2 °F 63.9 °F 30 in Calm     92 % 0 in
00:59 66 °F 63.7 °F 30 in Calm     92 % 0 in
01:04 66 °F 63.7 °F 30 in Calm     92 % 0 in
01:09 66 °F 63.7 °F 30 in Calm     92 % 0 in
01:14 65.8 °F 63.5 °F 30 in Calm     92 % 0 in
01:19 65.8 °F 63.5 °F 30 in Calm     92 % 0 in
01:24 65.8 °F 63.5 °F 30 in Calm     92 % 0 in
01:29 65.7 °F 63.7 °F 30 in Calm     93 % 0 in
01:34 65.7 °F 63.7 °F 30 in Calm     93 % 0 in
01:39 65.5 °F 63.3 °F 30 in Calm     93 % 0 in
01:44 65.5 °F 63.3 °F 30 in Calm     93 % 0 in
01:49 65.3 °F 63.1 °F 30 in Calm     93 % 0 in
01:54 65.1 °F 63 °F 30 in Calm     93 % 0 in
01:59 65.1 °F 63 °F 30 in Calm     93 % 0 in
02:04 65.1 °F 63 °F 30 in Calm     93 % 0 in
02:09 64.9 °F 63 °F 30 in Calm     93 % 0 in
02:14 64.9 °F 63 °F 30 in Calm     93 % 0 in
02:19 64.8 °F 62.8 °F 30 in Calm     93 % 0 in
02:24 64.8 °F 62.8 °F 30 in Calm     93 % 0 in
02:29 64.8 °F 62.8 °F 30 in Calm     93 % 0 in
02:34 64.6 °F 62.4 °F 30 in SW 0.2 mph 2 mph 93 % 0 in
02:39 64.6 °F 62.4 °F 30 in SW 0.6 mph 2 mph 93 % 0 in
02:44 64.4 °F 62.2 °F 30 in SW 0.4 mph 2 mph 93 % 0 in
02:49 64.4 °F 62.6 °F 30 in Calm     94 % 0 in
02:54 64.4 °F 62.6 °F 30 in Calm     94 % 0 in
02:59 64.4 °F 62.6 °F 30 in Calm     94 % 0 in
03:04 64.2 °F 62.4 °F 30 in Calm     94 % 0 in
03:09 64.2 °F 62.4 °F 30 in Calm     94 % 0 in
03:14 64.2 °F 62.4 °F 30 in Calm     94 % 0 in
03:19 64.2 °F 62.4 °F 30 in Calm     94 % 0 in
03:24 64.2 °F 62.4 °F 30 in Calm     94 % 0 in
03:29 64 °F 62.2 °F 30 in Calm     94 % 0 in
03:35 63.9 °F 62.1 °F 30 in Calm     94 % 0 in
03:40 63.9 °F 62.1 °F 30 in Calm     94 % 0 in
03:45 63.9 °F 62.4 °F 30 in Calm     95 % 0 in
03:50 63.7 °F 62.2 °F 30 in Calm     95 % 0 in
03:55 63.7 °F 62.2 °F 30 in Calm     95 % 0 in
04:00 63.7 °F 62.2 °F 30 in Calm     95 % 0 in
04:05 63.5 °F 62.1 °F 30 in Calm     95 % 0 in
04:10 63.5 °F 62.1 °F 30 in Calm     95 % 0 in
04:15 63.5 °F 62.1 °F 30 in Calm     95 % 0 in
04:20 63.3 °F 61.9 °F 30 in Calm     95 % 0 in
04:25 63.3 °F 61.9 °F 30 in Calm     95 % 0 in
04:30 63.3 °F 61.9 °F 30 in Calm     95 % 0 in
04:35 63.1 °F 61.7 °F 30 in Calm     95 % 0 in
04:40 63.1 °F 61.7 °F 30 in Calm     95 % 0 in
04:45 63.1 °F 61.7 °F 30 in Calm     95 % 0 in
04:50 63 °F 61.5 °F 30 in Calm     95 % 0 in
04:55 63 °F 61.5 °F 30 in Calm     95 % 0 in
05:00 63 °F 61.5 °F 30 in Calm     95 % 0 in
05:05 63 °F 61.5 °F 30 in Calm     95 % 0 in
05:10 62.8 °F 61.3 °F 30 in Calm     95 % 0 in
05:15 62.8 °F 61.3 °F 30 in Calm     95 % 0 in
05:17 62.8 °F 61.3 °F 30 in Calm     95 % 0 in
05:20 62.8 °F 61.3 °F 30 in Calm     95 % 0 in
05:22 62.8 °F 61.3 °F 30 in Calm     95 % 0 in
05:25 62.8 °F 61.3 °F 30 in Calm     95 % 0 in
05:30 62.6 °F 61.2 °F 30 in Calm     95 % 0 in
05:35 62.6 °F 61.2 °F 30 in Calm     95 % 0 in
05:40 62.6 °F 61.2 °F 30 in Calm     95 % 0 in
05:45 62.4 °F 61.3 °F 30 in Calm     96 % 0 in
05:55 62.4 °F 61.3 °F 30 in Calm     96 % 0 in
06:00 62.4 °F 61.3 °F 30 in Calm     96 % 0 in
06:05 62.4 °F 61.3 °F 30 in Calm     96 % 0 in
06:10 62.2 °F 61.2 °F 30 in Calm     96 % 0 in
06:15 62.4 °F 61.3 °F 30 in Calm     96 % 0 in
06:20 62.4 °F 61.3 °F 30 in Calm     96 % 0 in
06:25 62.4 °F 61.3 °F 30 in Calm     96 % 0 in
06:30 62.6 °F 61.3 °F 30 in Calm     96 % 0 in
06:35 62.6 °F 61.3 °F 30 in Calm     96 % 0 in
06:40 62.8 °F 61.5 °F 30 in Calm     96 % 0 in
06:45 63 °F 61.9 °F 30 in Calm     96 % 0 in
06:50 63 °F 61.9 °F 30 in Calm     96 % 0 in
06:55 63.1 °F 62.1 °F 30 in Calm     96 % 0 in
07:00 63.5 °F 62.2 °F 30 in Calm     96 % 0 in
07:05 63.7 °F 62.4 °F 30 in Calm     96 % 0 in
07:10 64 °F 63 °F 30 in Calm     96 % 0 in
07:15 64.2 °F 63.1 °F 30 in Calm     96 % 0 in
07:20 64.4 °F 63.1 °F 30 in Calm     96 % 0 in
07:25 64.8 °F 63.7 °F 30 in ESE 0.2 mph 2 mph 96 % 0 in
07:30 64.9 °F 63.9 °F 30 in ESE 0.3 mph 2 mph 96 % 0 in
07:35 65.3 °F 64 °F 30 in East 0.1 mph 2 mph 96 % 0 in
07:40 65.5 °F 64.2 °F 30 in Calm   1.6 mph 96 % 0 in
07:45 65.8 °F 64.8 °F 30 in East 0.7 mph 2.5 mph 96 % 0 in
07:50 66 °F 64.8 °F 30 in East 0.8 mph 2.5 mph 96 % 0 in
07:55 66.6 °F 65.1 °F 30 in ESE 0.1 mph 1.3 mph 95 % 0 in
08:01 66.9 °F 65.5 °F 30 in SE 0.6 mph 3.1 mph 95 % 0 in
08:06 67.5 °F 66 °F 30 in ESE 1.3 mph 3.1 mph 95 % 0 in
08:11 67.8 °F 66.4 °F 30 in ESE 0.9 mph 3.1 mph 95 % 0 in
08:16 68.4 °F 66.9 °F 30 in South 1.3 mph 4.7 mph 95 % 0 in
08:21 68.5 °F 67.1 °F 30 in South 2.1 mph 4.7 mph 95 % 0 in
08:26 69.3 °F 67.8 °F 30 in SSW 2.5 mph 3.8 mph 95 % 0 in
08:31 69.6 °F 67.8 °F 30 in SSW 2.7 mph 3.8 mph 94 % 0 in
08:36 70 °F 68.2 °F 30 in SSE 2.2 mph 3.8 mph 94 % 0 in
08:41 70.7 °F 68.5 °F 30 in SE 1.5 mph 3.8 mph 93 % 0 in
08:46 71.4 °F 69.3 °F 30 in South 1.8 mph 4.5 mph 93 % 0 in
08:51 72.1 °F 69.6 °F 30.1 in SSW 3 mph 4.5 mph 92 % 0 in
08:56 72.5 °F 69.6 °F 30.1 in SW 3 mph 4.3 mph 91 % 0 in
09:01 73.2 °F 70.3 °F 30.1 in SSW 2.2 mph 3.4 mph 91 % 0 in
09:06 73.9 °F 70.9 °F 30 in South 1.4 mph 3.4 mph 90 % 0 in
09:11 74.3 °F 70.9 °F 30 in SSW 1.1 mph 2.5 mph 89 % 0 in
09:16 74.8 °F 71.1 °F 30 in SW 0.7 mph 2.5 mph 88 % 0 in
09:21 75.4 °F 71.2 °F 30 in SSE 0.8 mph 2.9 mph 87 % 0 in
09:26 75.7 °F 71.2 °F 30 in South 1 mph 2.9 mph 86 % 0 in
09:31 76.3 °F 71.4 °F 30 in West 0.6 mph 2.7 mph 85 % 0 in
09:36 77 °F 71.8 °F 30 in SSE 1.1 mph 3.8 mph 84 % 0 in
09:41 77.7 °F 72.1 °F 30 in SE 1.5 mph 3.8 mph 83 % 0 in
09:46 78.4 °F 72.5 °F 30 in SE 3 mph 8.9 mph 82 % 0 in
09:51 79 °F 72 °F 30 in SE 4.7 mph 8.9 mph 79 % 0 in
09:56 79.3 °F 71.4 °F 30 in ESE 3.9 mph 6.5 mph 77 % 0 in
10:01 79.9 °F 71.6 °F 30 in East 2.7 mph 6.3 mph 76 % 0 in
10:06 80.4 °F 71.8 °F 30.1 in East 2.8 mph 6 mph 75 % 0 in
10:11 80.8 °F 71.8 °F 30.1 in East 3 mph 6.3 mph 74 % 0 in
10:16 81.1 °F 71.2 °F 30.1 in East 2.8 mph 6.3 mph 72 % 0 in
10:21 81.3 °F 69.3 °F 30.1 in East 3.3 mph 7.2 mph 67 % 0 in
10:23 81.5 °F 70.3 °F 30.1 in East 3.4 mph 7.2 mph 69 % 0 in
10:28 81.9 °F 70.7 °F 30.1 in East 2.9 mph 7.2 mph 69 % 0 in
10:33 81.9 °F 69.8 °F 30.1 in East 2.7 mph 6 mph 67 % 0 in
10:38 82.2 °F 71.1 °F 30 in East 3.3 mph 7.4 mph 69 % 0 in
10:43 82.8 °F 70.7 °F 30 in ESE 3.9 mph 7.4 mph 67 % 0 in
10:46 82.8 °F 70.7 °F 30 in East 4.6 mph 8.1 mph 67 % 0 in
10:51 82.8 °F 70.2 °F 30 in East 3.6 mph 8.1 mph 66 % 0 in
10:56 83.1 °F 71.1 °F 30 in East 2.6 mph 7.6 mph 67 % 0 in
11:01 83.3 °F 70.3 °F 30 in East 3.3 mph 9.8 mph 65 % 0 in
11:06 83.5 °F 70.9 °F 30 in ENE 3.3 mph 9.8 mph 66 % 0 in
11:11 83.7 °F 71.1 °F 30 in ENE 3.1 mph 8.5 mph 66 % 0 in
11:16 84 °F 71.4 °F 30 in ENE 3.6 mph 6.9 mph 66 % 0 in
11:21 84.2 °F 70.7 °F 30 in ENE 3.4 mph 7.6 mph 64 % 0 in
11:26 84.4 °F 70.9 °F 30 in ENE 2.8 mph 7.6 mph 64 % 0 in
11:31 84.9 °F 70.9 °F 30 in East 2.9 mph 5.6 mph 63 % 0 in
11:36 85.1 °F 71.4 °F 30 in ENE 3.7 mph 7.4 mph 64 % 0 in
11:41 85.3 °F 71.2 °F 30 in ENE 4 mph 7.4 mph 63 % 0 in
11:46 85.8 °F 71.8 °F 30 in East 3.6 mph 8.7 mph 63 % 0 in
11:51 86.2 °F 71.6 °F 30 in ESE 3.7 mph 8.7 mph 62 % 0 in
11:56 86.4 °F 71.8 °F 30 in East 3.4 mph 7.8 mph 62 % 0 in
12:01 86.5 °F 72 °F 30 in ENE 3 mph 7.8 mph 62 % 0 in
12:06 86.9 °F 71.8 °F 30 in ESE 3.5 mph 7.6 mph 61 % 0 in
12:11 86.9 °F 71.2 °F 30 in East 3.7 mph 7.6 mph 60 % 0 in
12:16 86.9 °F 71.2 °F 30 in ENE 3.3 mph 6.5 mph 60 % 0 in
12:21 87.1 °F 71.4 °F 30 in East 3.3 mph 6.3 mph 60 % 0 in
12:26 87.1 °F 71.1 °F 30 in ESE 3.3 mph 6 mph 59 % 0 in
12:31 87.3 °F 71.2 °F 30 in East 3 mph 5.8 mph 59 % 0 in
12:36 87.6 °F 71.4 °F 30 in ESE 2.9 mph 5.8 mph 59 % 0 in
12:41 87.8 °F 71.8 °F 30 in SE 2.9 mph 6.5 mph 59 % 0 in
12:46 88.2 °F 71.1 °F 30 in SE 3.6 mph 8.1 mph 57 % 0 in
12:51 88.2 °F 71.4 °F 30 in ESE 3.1 mph 8.1 mph 58 % 0 in
12:56 88.7 °F 72 °F 30 in ESE 3 mph 7.2 mph 58 % 0 in
13:01 88.9 °F 71.8 °F 30 in ESE 3.1 mph 7.2 mph 57 % 0 in
13:06 88.7 °F 70.5 °F 30 in East 2.7 mph 6 mph 55 % 0 in
13:11 88.7 °F 71.1 °F 30 in ESE 2 mph 4 mph 56 % 0 in
13:16 88.9 °F 71.2 °F 30 in ESE 2.4 mph 7.4 mph 56 % 0 in
13:21 89.1 °F 71.2 °F 30 in East 2.8 mph 7.4 mph 56 % 0 in
13:26 89.1 °F 70.9 °F 30 in ENE 2.6 mph 6.3 mph 55 % 0 in
13:31 89.2 °F 71.4 °F 30 in ENE 2.5 mph 6.3 mph 56 % 0 in
13:32 89.2 °F 71.4 °F 30 in ENE 2.5 mph 6.3 mph 56 % 0 in
13:37 89.2 °F 71.4 °F 30 in ENE 2.5 mph 6 mph 56 % 0 in
13:42 89.2 °F 71.1 °F 30 in East 3.4 mph 6 mph 55 % 0 in
13:47 89.4 °F 71.1 °F 30 in East 2.8 mph 6.5 mph 55 % 0 in
13:52 89.6 °F 70.9 °F 30 in ENE 2.5 mph 6.5 mph 54 % 0 in
13:57 89.8 °F 70.9 °F 30 in ENE 2.9 mph 8.1 mph 54 % 0 in
14:02 89.8 °F 69.8 °F 30 in ENE 3.6 mph 8.1 mph 52 % 0 in
14:07 90 °F 70.5 °F 30 in ENE 3.3 mph 7.8 mph 53 % 0 in
14:12 90.1 °F 70.2 °F 30 in East 3.2 mph 7.8 mph 52 % 0 in
14:17 90.1 °F 70.2 °F 30 in ENE 4.2 mph 8.7 mph 52 % 0 in
14:22 90.3 °F 69.6 °F 30 in ENE 3.6 mph 8.7 mph 51 % 0 in
14:27 90.5 °F 70 °F 30 in ENE 3 mph 6.3 mph 51 % 0 in
14:32 90 °F 69.4 °F 30 in ENE 3.5 mph 8.1 mph 51 % 0 in
14:37 89.6 °F 69.1 °F 30 in East 4 mph 8.1 mph 51 % 0 in
14:42 89.8 °F 68.7 °F 30 in East 4.1 mph 8.7 mph 50 % 0 in
14:47 90.3 °F 70.3 °F 30 in ESE 3.8 mph 8.7 mph 52 % 0 in
14:52 90 °F 70 °F 30 in East 3.6 mph 8.7 mph 52 % 0 in
14:57 89.6 °F 69.6 °F 30 in East 3.3 mph 8.7 mph 52 % 0 in
15:02 89.2 °F 70 °F 30 in East 2.6 mph 8.7 mph 53 % 0 in
15:07 89.1 °F 69.6 °F 30 in ENE 3.2 mph 7.8 mph 53 % 0 in
15:12 88.7 °F 70 °F 30 in NE 3.1 mph 7.8 mph 54 % 0 in
15:17 88.9 °F 70.5 °F 30 in ENE 1.8 mph 5.6 mph 55 % 0 in
15:22 89.6 °F 70.2 °F 30 in ENE 1.7 mph 4 mph 53 % 0 in
15:27 90.3 °F 70.9 °F 30 in East 2.4 mph 6 mph 53 % 0 in
15:32 90.7 °F 70.5 °F 30 in East 2.4 mph 6 mph 52 % 0 in
15:37 90.9 °F 70.2 °F 30 in ENE 1.9 mph 5.4 mph 51 % 0 in
15:42 91 °F 69.8 °F 30 in NE 2.2 mph 5.8 mph 50 % 0 in
15:48 91 °F 70.3 °F 30 in NE 1.4 mph 2.9 mph 51 % 0 in
15:53 91.2 °F 70 °F 30 in East 3.1 mph 4.9 mph 50 % 0 in
15:58 91.4 °F 69.1 °F 30 in East 2.9 mph 6.3 mph 48 % 0 in
16:03 91.6 °F 69.1 °F 30 in ENE 3 mph 6.3 mph 48 % 0 in
16:08 91.8 °F 68 °F 30 in ENE 3 mph 6 mph 46 % 0 in
16:13 91.6 °F 68.5 °F 30 in ENE 2.7 mph 5.6 mph 47 % 0 in
16:18 91.8 °F 69.3 °F 30 in ENE 2.4 mph 5.4 mph 48 % 0 in
16:23 91.9 °F 68.7 °F 30 in East 2.5 mph 6.3 mph 47 % 0 in
16:28 91.9 °F 68.7 °F 30 in East 3.2 mph 6.3 mph 47 % 0 in
16:33 91.9 °F 68.7 °F 30 in ENE 3.5 mph 8.5 mph 47 % 0 in
16:35 91.8 °F 68.7 °F 30 in ENE 3.5 mph 8.5 mph 47 % 0 in
16:40 91.8 °F 69.3 °F 30 in East 3.4 mph 8.5 mph 48 % 0 in
16:45 91.8 °F 69.3 °F 30 in East 2.6 mph 6 mph 48 % 0 in
16:50 91.9 °F 69.4 °F 30 in ENE 1.8 mph 4.7 mph 48 % 0 in
16:55 92.1 °F 69.6 °F 30 in ESE 2.7 mph 6 mph 48 % 0 in
17:00 92.1 °F 70.2 °F 30 in ESE 3.2 mph 6 mph 49 % 0 in
17:05 91.9 °F 70 °F 29.9 in ENE 2.6 mph 4.7 mph 49 % 0 in
17:10 91.9 °F 70 °F 29.9 in NE 1.9 mph 4.7 mph 49 % 0 in
17:15 91.9 °F 70 °F 29.9 in ENE 1.3 mph 5.4 mph 49 % 0 in
17:20 92.1 °F 70.2 °F 29.9 in East 1.6 mph 5.4 mph 49 % 0 in
17:25 92.1 °F 69.6 °F 29.9 in East 2 mph 5.6 mph 48 % 0 in
17:30 92.1 °F 69.6 °F 29.9 in East 2.7 mph 5.4 mph 48 % 0 in
17:35 91.9 °F 70 °F 30 in East 3 mph 6 mph 49 % 0 in
17:40 91.8 °F 70 °F 30 in ENE 3.3 mph 6 mph 49 % 0 in
17:45 91.6 °F 69.6 °F 30 in ENE 3.4 mph 6.5 mph 49 % 0 in
17:50 91.2 °F 69.4 °F 29.9 in ENE 3.5 mph 6.5 mph 49 % 0 in
17:55 90.9 °F 69.1 °F 29.9 in ENE 2.9 mph 5.8 mph 49 % 0 in
18:00 90.3 °F 69.3 °F 29.9 in NE 2.5 mph 5.8 mph 50 % 0 in
18:05 90.1 °F 70.2 °F 30 in NE 1.6 mph 4.9 mph 52 % 0 in
18:10 89.8 °F 69.8 °F 30 in ENE 1 mph 3.8 mph 52 % 0 in
18:15 89.4 °F 70 °F 30 in East 1.7 mph 4.9 mph 53 % 0 in
18:20 89.2 °F 70 °F 30 in East 2.2 mph 4.9 mph 53 % 0 in
18:25 88.9 °F 69.4 °F 30 in East 2.4 mph 6 mph 53 % 0 in
18:30 88.5 °F 69.8 °F 30 in East 2.2 mph 6 mph 54 % 0 in
18:35 88.3 °F 70.2 °F 30 in East 1.4 mph 5.6 mph 55 % 0 in
18:40 88 °F 69.8 °F 30 in East 0.9 mph 3.6 mph 55 % 0 in
18:45 87.6 °F 70.5 °F 30 in ESE 1.1 mph 3.6 mph 57 % 0 in
18:50 87.3 °F 70.7 °F 30 in ESE 1.5 mph 4 mph 58 % 0 in
18:55 87.1 °F 70.5 °F 30 in ESE 1 mph 4 mph 58 % 0 in
19:00 86.7 °F 71.2 °F 30 in East 0.7 mph 2.7 mph 60 % 0 in
19:05 86.2 °F 71.2 °F 30 in NE 1.1 mph 2.7 mph 61 % 0 in
19:10 85.6 °F 71.1 °F 30 in North 0.7 mph 1.6 mph 62 % 0 in
19:15 85.1 °F 71.1 °F 30 in North 0.2 mph 1.6 mph 63 % 0 in
19:20 84.6 °F 71.1 °F 30 in NNW 0.2 mph 3.4 mph 64 % 0 in
19:25 84 °F 71.4 °F 30 in NW 1.1 mph 3.4 mph 66 % 0 in
19:30 83.5 °F 70.9 °F 30 in NW 1.6 mph 3.1 mph 66 % 0 in
19:35 83.1 °F 71.1 °F 30 in NW 0.7 mph 2.2 mph 67 % 0 in
19:41 82.6 °F 70.9 °F 30 in North 0.1 mph 1.3 mph 68 % 0 in
19:46 82 °F 70.9 °F 30 in NNW 0.4 mph 2.7 mph 69 % 0 in
19:51 81.9 °F 71.1 °F 30 in NW 1.2 mph 2.9 mph 70 % 0 in
19:56 81.3 °F 70.5 °F 30 in NW 1.2 mph 2.9 mph 70 % 0 in
20:01 81 °F 70.7 °F 30 in NW 0.3 mph 2.9 mph 71 % 0 in
20:06 80.6 °F 70.7 °F 30 in Calm     72 % 0 in
20:11 80.2 °F 70.3 °F 30 in Calm     72 % 0 in
20:16 79.7 °F 70.7 °F 30 in Calm     74 % 0 in
20:21 79.3 °F 70.3 °F 29.9 in Calm     74 % 0 in
20:26 79 °F 70.3 °F 29.9 in NW 0.5 mph 2.9 mph 75 % 0 in
20:31 78.6 °F 70 °F 29.9 in NW 0.6 mph 2.9 mph 75 % 0 in
20:36 78.3 °F 70.2 °F 29.9 in NNW 0.1 mph 1.6 mph 76 % 0 in
20:41 78.1 °F 70 °F 29.9 in NW 0.5 mph 2.5 mph 76 % 0 in
20:46 77.7 °F 70 °F 29.9 in NW 0.6 mph 2.5 mph 77 % 0 in
20:51 77.5 °F 69.8 °F 30 in NW 0.3 mph 2.5 mph 77 % 0 in
20:56 77.2 °F 69.8 °F 30 in NW 0.3 mph 2.5 mph 78 % 0 in
21:01 76.8 °F 69.8 °F 30 in Calm   1.1 mph 79 % 0 in
21:06 76.6 °F 69.6 °F 29.9 in Calm   1.6 mph 79 % 0 in
21:11 76.3 °F 69.3 °F 29.9 in Calm   1.6 mph 79 % 0 in
21:16 75.9 °F 69.3 °F 29.9 in Calm   1.1 mph 80 % 0 in
21:21 75.7 °F 69.1 °F 30 in SW 0.7 mph 3.4 mph 80 % 0 in
21:26 75.6 °F 69.1 °F 30 in SW 1.4 mph 3.4 mph 80 % 0 in
21:31 75.2 °F 68.5 °F 30 in WNW 1.1 mph 3.1 mph 80 % 0 in
21:36 75 °F 69.1 °F 30 in NNW 0.6 mph 2.9 mph 82 % 0 in
21:41 75 °F 69.1 °F 30 in North 0.1 mph   82 % 0 in
21:46 74.8 °F 69.1 °F 30 in Calm     82 % 0 in
21:51 74.5 °F 68.5 °F 30 in WSW 0.4 mph 2.5 mph 82 % 0 in
21:56 74.3 °F 68.7 °F 30 in WSW 0.4 mph 2.5 mph 83 % 0 in
22:01 74.1 °F 68.5 °F 30 in North 0.1 mph   83 % 0 in
22:06 73.9 °F 68.7 °F 30 in Calm     84 % 0 in
22:11 73.6 °F 68.4 °F 30 in NNE 0.1 mph 1.3 mph 84 % 0 in
22:13 73.6 °F 68.7 °F 30 in NNE 0.1 mph 1.3 mph 85 % 0 in
22:18 73.4 °F 68.5 °F 30 in West 0.4 mph 2.5 mph 85 % 0 in
22:23 73.2 °F 68.7 °F 30 in WSW 0.3 mph 2.5 mph 86 % 0 in
22:28 73 °F 68.5 °F 30 in Calm   1.3 mph 86 % 0 in
22:33 72.9 °F 68.4 °F 30 in Calm   1.3 mph 86 % 0 in
22:38 72.7 °F 68.5 °F 30 in Calm     87 % 0 in
22:43 72.5 °F 68.4 °F 30 in North 0.1 mph 1.3 mph 87 % 0 in
22:48 72.3 °F 68.2 °F 30 in North 0.1 mph 1.3 mph 87 % 0 in
22:53 72.3 °F 68.2 °F 30 in Calm     87 % 0 in
22:58 72.1 °F 68.2 °F 30 in Calm     87 % 0 in
23:03 72 °F 68.2 °F 30 in Calm     88 % 0 in
23:08 72 °F 67.8 °F 30 in Calm     87 % 0 in
23:13 71.8 °F 68 °F 30 in Calm     88 % 0 in
23:18 71.8 °F 68 °F 30 in Calm     88 % 0 in
23:23 71.6 °F 67.8 °F 30 in Calm     88 % 0 in
23:28 71.6 °F 67.8 °F 30 in Calm     88 % 0 in
23:33 71.4 °F 68 °F 30 in Calm     89 % 0 in
23:38 71.2 °F 67.8 °F 30 in Calm     89 % 0 in
23:43 71.1 °F 67.6 °F 30 in Calm     89 % 0 in
23:48 70.9 °F 67.5 °F 30 in Calm     89 % 0 in
23:53 70.9 °F 67.5 °F 30 in Calm     89 % 0 in
23:58 70.7 °F 67.3 °F 30 in Calm     89 % 0 in
Vremenska postaja Senovo
Podatki zbrani iz Weather Underground - 3 mb

Script developed by  Jim McMurry - jmcmurry@mwt.net Adapted for the template by  Wim van der Kuil - Leuven-Template.eu

Vremenski podatki so objavljeni na:

WeatherCloud

Weather Underground

AWEKAS

HAMweather, WeatherForYou, PWS Weather

MapView

Geostik

Slovenia weather network

Oprema, ki se uporablja:

Vremenski program
Cumulus

Cumulus